Time;durP1;ratioP1;P1;durP2;ratioP2;P2;SDS_P1;SDS_P2;PMS_P1;PMS_P2;Temp;Humidity;BMP_temperature;BMP_pressure;BME280_temperature;BME280_humidity;BME280_pressure;Samples;Min_cycle;Max_cycle;Signal;HPM_P1;HPM_P2
2022/03/14 00:01:22;;;;;;;21.15;13.32;;;8.70;99.80;;;;;;5017966;28;20102;-79
2022/03/14 00:03:55;;;;;;;21.10;14.02;;;8.70;99.90;;;;;;5035428;28;20052;-79
2022/03/14 00:06:20;;;;;;;;;;;8.60;99.90;;;;;;5035881;28;20382;-79
2022/03/14 00:08:47;;;;;;;23.17;14.70;;;8.60;99.90;;;;;;5035399;28;19928;-79
2022/03/14 00:11:14;;;;;;;21.48;14.60;;;8.60;99.90;;;;;;5035283;28;20108;-79
2022/03/14 00:13:43;;;;;;;22.05;14.32;;;8.50;99.90;;;;;;5017405;28;20065;-79
2022/03/14 00:16:09;;;;;;;23.10;12.80;;;8.50;99.90;;;;;;5035225;28;20045;-79
2022/03/14 00:18:36;;;;;;;20.30;13.55;;;8.50;99.90;;;;;;5017420;28;20073;-79
2022/03/14 00:21:02;;;;;;;20.88;13.35;;;8.50;99.90;;;;;;5035188;28;20099;-79
2022/03/14 00:23:28;;;;;;;26.50;13.75;;;8.40;99.90;;;;;;5035059;28;20056;-79
2022/03/14 00:25:54;;;;;;;23.92;14.75;;;8.40;99.90;;;;;;5034859;28;20042;-78
2022/03/14 00:28:20;;;;;;;22.65;14.70;;;8.40;99.90;;;;;;5034763;28;20037;-79
2022/03/14 00:30:46;;;;;;;19.85;13.63;;;8.40;99.90;;;;;;5017086;28;20485;-79
2022/03/14 00:33:12;;;;;;;20.60;13.88;;;8.40;99.90;;;;;;5016914;28;20485;-79
2022/03/14 00:35:38;;;;;;;23.50;14.40;;;8.40;99.90;;;;;;5017097;28;20060;-79
2022/03/14 00:38:03;;;;;;;26.45;14.20;;;8.30;99.90;;;;;;5034741;28;20056;-79
2022/03/14 00:40:29;;;;;;;24.85;14.43;;;8.30;99.90;;;;;;5034746;28;20120;-79
2022/03/14 00:42:55;;;;;;;20.25;13.55;;;8.30;99.90;;;;;;5034741;28;20445;-79
2022/03/14 00:45:23;;;;;;;22.95;13.50;;;8.30;99.90;;;;;;5034540;28;20049;-79
2022/03/14 00:47:49;;;;;;;22.55;14.18;;;8.30;99.90;;;;;;5017120;28;20054;-78
2022/03/14 00:50:15;;;;;;;19.85;12.93;;;8.30;99.90;;;;;;5034590;28;20081;-79
2022/03/14 00:52:40;;;;;;;22.42;14.13;;;8.20;99.90;;;;;;5034581;28;20084;-79
2022/03/14 00:55:06;;;;;;;21.70;14.15;;;8.20;99.90;;;;;;5035156;28;20185;-79
2022/03/14 00:57:32;;;;;;;24.23;14.90;;;8.20;99.90;;;;;;5034463;28;20045;-79
2022/03/14 00:59:58;;;;;;;22.30;13.73;;;8.20;99.90;;;;;;5034167;28;20069;-79
2022/03/14 01:02:24;;;;;;;25.33;15.32;;;8.20;99.90;;;;;;5034264;28;20053;-79
2022/03/14 01:04:50;;;;;;;24.58;15.52;;;8.10;99.90;;;;;;5034330;28;20041;-79
2022/03/14 01:07:15;;;;;;;23.00;14.38;;;8.10;99.90;;;;;;5034182;28;20041;-79
2022/03/14 01:09:41;;;;;;;26.05;14.65;;;8.10;99.90;;;;;;5034290;28;20041;-79
2022/03/14 01:12:07;;;;;;;20.98;14.13;;;8.10;99.90;;;;;;5034030;28;20038;-79
2022/03/14 01:14:33;;;;;;;22.55;14.05;;;8.10;99.90;;;;;;5034193;28;20183;-79
2022/03/14 01:16:59;;;;;;;26.42;15.30;;;8.10;99.90;;;;;;5034135;28;20438;-79
2022/03/14 01:19:24;;;;;;;26.95;15.05;;;8.20;99.90;;;;;;5034112;28;20048;-79
2022/03/14 01:21:50;;;;;;;22.05;14.23;;;8.20;99.90;;;;;;5033927;28;20050;-79
2022/03/14 01:24:17;;;;;;;24.48;14.68;;;8.20;99.90;;;;;;5034090;28;20129;-79
2022/03/14 01:26:44;;;;;;;24.08;14.38;;;8.20;99.90;;;;;;5033831;28;20374;-79
2022/03/14 01:29:10;;;;;;;25.60;14.88;;;8.20;99.90;;;;;;5033618;28;20050;-79
2022/03/14 01:31:36;;;;;;;27.90;14.90;;;8.20;99.90;;;;;;5033780;28;20416;-79
2022/03/14 01:34:02;;;;;;;24.75;15.02;;;8.20;99.90;;;;;;5033810;28;20049;-79
2022/03/14 01:36:28;;;;;;;24.10;15.68;;;8.10;99.90;;;;;;5033727;28;20049;-80
2022/03/14 01:38:55;;;;;;;25.75;15.48;;;8.10;99.90;;;;;;5016386;28;20375;-79
2022/03/14 01:41:22;;;;;;;23.58;13.98;;;8.10;99.90;;;;;;5016466;28;20049;-77
2022/03/14 01:43:49;;;;;;;22.95;15.23;;;8.10;99.90;;;;;;5032762;28;20053;-76
2022/03/14 01:46:16;;;;;;;24.92;14.63;;;8.10;99.90;;;;;;5033644;28;20067;-76
2022/03/14 01:48:45;;;;;;;24.38;14.48;;;8.10;99.90;;;;;;5015832;28;20064;-76
2022/03/14 01:51:12;;;;;;;24.05;14.43;;;8.10;99.90;;;;;;5033565;28;20046;-76
2022/03/14 01:53:39;;;;;;;27.08;15.95;;;8.10;99.90;;;;;;5033371;28;20493;-76
2022/03/14 01:56:06;;;;;;;24.38;15.25;;;8.10;99.90;;;;;;5016030;28;20094;-76
2022/03/14 01:58:32;;;;;;;25.25;14.73;;;8.10;99.90;;;;;;5033517;28;20045;-76
2022/03/14 02:00:57;;;;;;;22.65;13.43;;;8.10;99.90;;;;;;5033460;28;20057;-76
2022/03/14 02:03:23;;;;;;;23.35;13.93;;;8.10;99.90;;;;;;5015772;28;20044;-76
2022/03/14 02:05:49;;;;;;;23.77;16.23;;;8.20;99.90;;;;;;5015508;28;20072;-76
2022/03/14 02:08:15;;;;;;;24.83;14.38;;;8.20;99.90;;;;;;5033517;28;20092;-76
2022/03/14 02:10:41;;;;;;;25.60;14.95;;;8.20;99.90;;;;;;5015740;28;20126;-76
2022/03/14 02:13:09;;;;;;;24.52;15.65;;;8.30;99.90;;;;;;5033539;28;20200;-76
2022/03/14 02:15:35;;;;;;;26.17;15.55;;;8.20;99.90;;;;;;5015891;28;20037;-76
2022/03/14 02:18:02;;;;;;;26.92;15.20;;;8.30;99.90;;;;;;5033269;28;20060;-76
2022/03/14 02:20:28;;;;;;;28.27;16.02;;;8.30;99.90;;;;;;5033003;28;20535;-76
2022/03/14 02:22:53;;;;;;;34.13;17.10;;;8.20;99.90;;;;;;5033082;28;20095;-76
2022/03/14 02:25:19;;;;;;;25.55;15.70;;;8.20;99.90;;;;;;5033350;28;20480;-76
2022/03/14 02:27:45;;;;;;;25.35;15.05;;;8.20;99.90;;;;;;5033057;28;20389;-77
2022/03/14 02:30:11;;;;;;;24.45;15.57;;;8.20;99.90;;;;;;5015843;28;20111;-76
2022/03/14 02:32:41;;;;;;;25.35;16.00;;;8.20;99.90;;;;;;5015823;28;20088;-76
2022/03/14 02:35:08;;;;;;;27.02;15.70;;;8.20;99.90;;;;;;5033643;28;20099;-76
2022/03/14 02:37:34;;;;;;;26.20;15.57;;;8.20;99.90;;;;;;5033235;28;20044;-76
2022/03/14 02:40:00;;;;;;;25.77;15.27;;;8.10;99.90;;;;;;5015355;28;20085;-76
2022/03/14 02:42:26;;;;;;;26.13;16.15;;;8.10;99.90;;;;;;5015378;28;20111;-76
2022/03/14 02:44:52;;;;;;;28.60;16.08;;;8.10;99.90;;;;;;5015749;28;20037;-76
2022/03/14 02:47:18;;;;;;;25.85;16.42;;;8.10;99.90;;;;;;5033092;28;20429;-76
2022/03/14 02:49:43;;;;;;;24.30;15.70;;;8.10;99.90;;;;;;5015449;28;20041;-76
2022/03/14 02:52:09;;;;;;;27.30;16.17;;;8.10;99.90;;;;;;5015627;28;20103;-76
2022/03/14 02:54:35;;;;;;;26.83;16.23;;;8.10;99.90;;;;;;5033653;28;20128;-76
2022/03/14 02:57:01;;;;;;;24.80;15.27;;;8.10;99.90;;;;;;5036810;28;20045;-76
2022/03/14 02:59:27;;;;;;;26.65;16.65;;;8.10;99.90;;;;;;5036666;28;20052;-76
2022/03/14 03:01:52;;;;;;;26.65;15.57;;;8.10;99.90;;;;;;5018667;28;20037;-76
2022/03/14 03:04:18;;;;;;;28.00;16.63;;;8.10;99.90;;;;;;5018520;28;20050;-76
2022/03/14 03:06:45;;;;;;;23.67;15.75;;;8.10;99.90;;;;;;5036537;28;20083;-76
2022/03/14 03:09:11;;;;;;;23.90;15.38;;;8.10;99.90;;;;;;5036440;28;20041;-76
2022/03/14 03:11:37;;;;;;;29.17;16.92;;;8.10;99.90;;;;;;5036387;28;20038;-76
2022/03/14 03:14:03;;;;;;;25.67;15.77;;;8.10;99.90;;;;;;5036411;28;20040;-76
2022/03/14 03:16:31;;;;;;;28.13;15.57;;;8.10;99.90;;;;;;5036199;28;20046;-76
2022/03/14 03:18:57;;;;;;;26.08;15.88;;;8.10;99.90;;;;;;5018661;28;20556;-76
2022/03/14 03:21:23;;;;;;;26.65;16.58;;;8.10;99.90;;;;;;5035915;28;20485;-76
2022/03/14 03:23:49;;;;;;;30.10;16.63;;;8.10;99.90;;;;;;5018386;28;20103;-76
2022/03/14 03:26:15;;;;;;;29.13;16.90;;;8.10;99.90;;;;;;5018737;28;20077;-76
2022/03/14 03:28:41;;;;;;;26.95;15.05;;;8.10;99.90;;;;;;5035676;28;20401;-77
2022/03/14 03:31:10;;;;;;;26.38;16.48;;;8.10;99.90;;;;;;5035755;28;20082;-77
2022/03/14 03:33:37;;;;;;;27.15;16.77;;;8.10;99.90;;;;;;5017955;28;20049;-76
2022/03/14 03:36:04;;;;;;;28.90;16.77;;;8.10;99.90;;;;;;5035968;28;20050;-76
2022/03/14 03:38:29;;;;;;;27.23;15.02;;;8.10;99.90;;;;;;5035932;28;20041;-76
2022/03/14 03:40:55;;;;;;;27.65;15.90;;;8.10;99.90;;;;;;5018219;28;20400;-76
2022/03/14 03:43:21;;;;;;;27.85;16.05;;;8.10;99.90;;;;;;5018310;28;20536;-76
2022/03/14 03:45:47;;;;;;;26.73;16.52;;;8.10;99.90;;;;;;5035512;28;20433;-77
2022/03/14 03:48:12;;;;;;;26.02;15.38;;;8.10;99.90;;;;;;5017828;28;20103;-76
2022/03/14 03:50:38;;;;;;;24.73;15.27;;;8.10;99.90;;;;;;5017773;28;20052;-76
2022/03/14 03:53:04;;;;;;;25.27;16.02;;;8.10;99.90;;;;;;5018060;28;20496;-77
2022/03/14 03:55:29;;;;;;;31.33;17.27;;;8.10;99.90;;;;;;5035672;28;20037;-76
2022/03/14 03:57:55;;;;;;;26.40;15.35;;;8.10;99.90;;;;;;5035754;28;20045;-76
2022/03/14 04:00:22;;;;;;;25.58;15.73;;;8.10;99.90;;;;;;5035501;28;20049;-77
2022/03/14 04:02:48;;;;;;;26.08;15.68;;;8.10;99.90;;;;;;5035436;28;20520;-76
2022/03/14 04:05:16;;;;;;;26.33;14.55;;;8.10;99.90;;;;;;5035243;28;20041;-76
2022/03/14 04:07:43;;;;;;;26.40;16.10;;;8.10;99.90;;;;;;5034491;28;20184;-77
2022/03/14 04:10:16;;;;;;;24.92;14.75;;;8.00;99.90;;;;;;5035362;28;20033;-76
2022/03/14 04:12:44;;;;;;;24.90;15.57;;;8.10;99.90;;;;;;5035365;28;20480;-76
2022/03/14 04:15:11;;;;;;;23.45;14.25;;;8.10;99.90;;;;;;5035273;28;20046;-76
2022/03/14 04:17:38;;;;;;;25.90;14.52;;;8.10;99.90;;;;;;5035054;28;20124;-76
2022/03/14 04:20:09;;;;;;;24.05;14.75;;;8.10;99.90;;;;;;5017365;28;20556;-76
2022/03/14 04:22:36;;;;;;;23.15;13.80;;;8.10;99.90;;;;;;5035093;28;20056;-76
2022/03/14 04:25:02;;;;;;;20.10;12.73;;;8.10;99.90;;;;;;5034913;28;20398;-76
2022/03/14 04:27:28;;;;;;;23.17;13.90;;;8.10;99.90;;;;;;5034566;28;20057;-76
2022/03/14 04:29:56;;;;;;;22.48;13.38;;;8.10;99.90;;;;;;5035040;28;20045;-76
2022/03/14 04:32:23;;;;;;;23.20;14.48;;;8.10;99.90;;;;;;5034908;28;20053;-76
2022/03/14 04:34:49;;;;;;;22.90;13.55;;;8.20;99.90;;;;;;5017357;28;20053;-76
2022/03/14 04:37:15;;;;;;;22.25;13.13;;;8.20;99.90;;;;;;5017101;28;20053;-76
2022/03/14 04:39:41;;;;;;;23.95;13.52;;;8.20;99.90;;;;;;5017140;28;20053;-76
2022/03/14 04:42:08;;;;;;;21.05;13.27;;;8.20;99.90;;;;;;5016916;28;20049;-77
2022/03/14 04:44:34;;;;;;;23.42;13.50;;;8.20;99.90;;;;;;5034683;28;20046;-76
2022/03/14 04:47:00;;;;;;;25.58;14.20;;;8.30;99.90;;;;;;5034473;28;20485;-76
2022/03/14 04:49:27;;;;;;;23.70;14.07;;;8.30;99.90;;;;;;5034623;28;20057;-76
2022/03/14 04:51:54;;;;;;;24.95;13.52;;;8.30;99.90;;;;;;5017059;28;20049;-76
2022/03/14 04:54:19;;;;;;;20.75;13.40;;;8.30;99.90;;;;;;5016772;28;20045;-76
2022/03/14 04:56:45;;;;;;;19.25;11.77;;;8.30;99.90;;;;;;5034441;28;20033;-77
2022/03/14 04:59:11;;;;;;;23.85;13.90;;;8.30;99.90;;;;;;5016793;28;20046;-76
2022/03/14 05:01:39;;;;;;;20.13;12.90;;;8.40;99.90;;;;;;5034305;28;20427;-77
2022/03/14 05:04:04;;;;;;;22.23;12.90;;;8.40;99.90;;;;;;5034293;28;20037;-77
2022/03/14 05:06:32;;;;;;;20.98;13.55;;;8.40;99.90;;;;;;5034180;28;20056;-77
2022/03/14 05:08:58;;;;;;;21.80;12.50;;;8.40;99.90;;;;;;5034283;28;20120;-77
2022/03/14 05:11:25;;;;;;;22.20;12.57;;;8.40;99.90;;;;;;5034184;28;20073;-76
2022/03/14 05:13:51;;;;;;;21.58;12.30;;;8.40;99.90;;;;;;5034403;28;20489;-77
2022/03/14 05:16:17;;;;;;;24.08;13.55;;;8.40;99.90;;;;;;5016300;28;20041;-80
2022/03/14 05:18:43;;;;;;;22.23;12.25;;;8.30;99.90;;;;;;5016153;28;20056;-80
2022/03/14 05:21:08;;;;;;;22.10;12.45;;;8.40;99.90;;;;;;5016597;28;20076;-80
2022/03/14 05:23:34;;;;;;;23.00;12.93;;;8.30;99.90;;;;;;5016303;28;20045;-80
2022/03/14 05:26:00;;;;;;;21.35;11.93;;;8.40;99.90;;;;;;5034002;28;20076;-76
2022/03/14 05:28:26;;;;;;;22.40;12.90;;;8.40;99.90;;;;;;5033704;28;20049;-76
2022/03/14 05:30:52;;;;;;;18.35;11.07;;;8.40;99.90;;;;;;5033897;28;20099;-76
2022/03/14 05:33:18;;;;;;;19.60;11.75;;;8.40;99.90;;;;;;5033823;28;20045;-76
2022/03/14 05:35:44;;;;;;;21.00;11.75;;;8.40;99.90;;;;;;5016357;28;20401;-76
2022/03/14 05:38:09;;;;;;;21.15;12.52;;;8.40;99.90;;;;;;5016337;28;20042;-76
2022/03/14 05:40:35;;;;;;;21.00;11.25;;;8.40;99.90;;;;;;5033705;28;20115;-76
2022/03/14 05:43:06;;;;;;;19.02;10.90;;;8.40;99.90;;;;;;5016178;28;20543;-76
2022/03/14 05:45:32;;;;;;;20.88;12.25;;;8.40;99.90;;;;;;5016237;28;20062;-76
2022/03/14 05:47:58;;;;;;;20.08;11.85;;;8.40;99.90;;;;;;5033881;28;20093;-76
2022/03/14 05:50:24;;;;;;;19.65;11.73;;;8.40;99.90;;;;;;5016204;28;20473;-76
2022/03/14 05:52:51;;;;;;;20.55;12.15;;;8.40;99.90;;;;;;5015933;28;20068;-76
2022/03/14 05:55:16;;;;;;;21.15;12.40;;;8.40;99.90;;;;;;5033622;28;20052;-76
2022/03/14 05:57:42;;;;;;;21.50;12.50;;;8.40;99.90;;;;;;5015779;28;20041;-77
2022/03/14 06:00:09;;;;;;;20.02;11.00;;;8.40;99.90;;;;;;5033422;28;20134;-77
2022/03/14 06:02:36;;;;;;;26.13;13.15;;;8.40;99.90;;;;;;5033341;28;20049;-76
2022/03/14 06:05:02;;;;;;;22.42;12.20;;;8.40;99.90;;;;;;5033276;28;20088;-77
2022/03/14 06:07:27;;;;;;;22.30;12.27;;;8.40;99.90;;;;;;5015491;28;20049;-76
2022/03/14 06:09:53;;;;;;;20.33;11.63;;;8.40;99.90;;;;;;5014273;28;20041;-76
2022/03/14 06:12:29;;;;;;;19.40;11.68;;;8.40;99.90;;;;;;5032840;28;20085;-76
2022/03/14 06:14:57;;;;;;;19.83;11.48;;;8.40;99.90;;;;;;5033371;28;20037;-77
2022/03/14 06:17:23;;;;;;;20.42;11.10;;;8.40;99.90;;;;;;5033438;28;20041;-76
2022/03/14 06:19:50;;;;;;;18.33;10.70;;;8.40;99.90;;;;;;5015341;28;20444;-76
2022/03/14 06:22:17;;;;;;;19.00;11.00;;;8.40;99.90;;;;;;5033284;28;20125;-77
2022/03/14 06:24:45;;;;;;;20.02;12.13;;;8.40;99.90;;;;;;5033044;28;20396;-77
2022/03/14 06:27:11;;;;;;;19.45;10.70;;;8.50;99.90;;;;;;5033183;28;20053;-77
2022/03/14 06:29:37;;;;;;;22.55;11.25;;;8.50;99.90;;;;;;5033721;28;20053;-77
2022/03/14 06:32:04;;;;;;;22.58;11.40;;;8.50;99.90;;;;;;5037060;28;20107;-76
2022/03/14 06:34:30;;;;;;;18.63;10.73;;;8.50;99.90;;;;;;5036986;28;20075;-77
2022/03/14 06:36:56;;;;;;;22.00;12.07;;;8.50;99.90;;;;;;5037011;28;20095;-76
2022/03/14 06:39:22;;;;;;;22.05;11.68;;;8.50;99.90;;;;;;5036922;28;20037;-77
2022/03/14 06:41:48;;;;;;;20.55;11.05;;;8.50;99.90;;;;;;5036844;28;20428;-77
2022/03/14 06:44:14;;;;;;;25.77;12.90;;;8.50;99.90;;;;;;5036764;28;20389;-76
2022/03/14 06:46:40;;;;;;;21.77;11.20;;;8.50;99.90;;;;;;5036769;28;20216;-77
2022/03/14 06:49:06;;;;;;;20.58;11.63;;;8.50;99.90;;;;;;5036484;28;20045;-77
2022/03/14 06:51:32;;;;;;;20.33;10.63;;;8.50;99.90;;;;;;5019029;28;20071;-77
2022/03/14 06:53:58;;;;;;;22.95;11.20;;;8.60;99.90;;;;;;5019026;28;20042;-76
2022/03/14 06:56:25;;;;;;;23.73;11.48;;;8.60;99.90;;;;;;5018866;28;20053;-77
2022/03/14 06:58:50;;;;;;;22.17;10.95;;;8.60;99.90;;;;;;5036484;28;20050;-77
2022/03/14 07:01:16;;;;;;;24.10;11.75;;;8.60;99.90;;;;;;5018491;28;20046;-77
2022/03/14 07:03:42;;;;;;;26.23;11.85;;;8.60;99.90;;;;;;5018757;28;20056;-77
2022/03/14 07:06:07;;;;;;;21.13;11.40;;;8.60;99.90;;;;;;5036444;28;20046;-77
2022/03/14 07:08:33;;;;;;;23.58;9.68;;;8.70;99.90;;;;;;5018489;28;20132;-77
2022/03/14 07:10:59;;;;;;;19.05;9.88;;;8.60;99.90;;;;;;5018724;28;20049;-77
2022/03/14 07:13:24;;;;;;;21.10;11.65;;;8.70;99.90;;;;;;5018579;28;20424;-77
2022/03/14 07:15:50;;;;;;;22.90;10.07;;;8.70;99.90;;;;;;5018807;28;20049;-77
2022/03/14 07:18:16;;;;;;;19.15;10.00;;;8.70;99.90;;;;;;5018162;28;20081;-77
2022/03/14 07:20:42;;;;;;;18.42;10.57;;;8.80;99.90;;;;;;5035887;28;20583;-77
2022/03/14 07:23:08;;;;;;;19.52;10.70;;;8.80;99.90;;;;;;5018527;28;20131;-77
2022/03/14 07:25:37;;;;;;;20.27;10.63;;;8.80;99.90;;;;;;5001955;28;20506;-77
2022/03/14 07:28:07;;;;;;;19.15;9.63;;;8.80;99.90;;;;;;4985926;28;20066;-78
2022/03/14 07:30:34;;;;;;;23.30;10.65;;;8.80;99.90;;;;;;4979008;28;20050;-77
2022/03/14 07:33:00;;;;;;;19.10;10.13;;;8.90;99.90;;;;;;4996141;28;20394;-77
2022/03/14 07:35:27;;;;;;;20.45;10.88;;;8.90;99.90;;;;;;4996340;28;20483;-76
2022/03/14 07:37:53;;;;;;;24.25;11.15;;;8.90;99.90;;;;;;4996212;28;20046;-76
2022/03/14 07:40:19;;;;;;;17.60;9.70;;;8.90;99.90;;;;;;4995917;28;20060;-76
2022/03/14 07:42:50;;;;;;;21.15;10.73;;;8.90;99.90;;;;;;4977356;28;20516;-76
2022/03/14 07:45:19;;;;;;;21.77;11.02;;;8.90;99.90;;;;;;4978695;28;20042;-76
2022/03/14 07:47:44;;;;;;;22.67;11.30;;;9.00;99.90;;;;;;4978638;28;20065;-77
2022/03/14 07:50:13;;;;;;;22.08;10.35;;;9.00;99.90;;;;;;4996065;28;20382;-77
2022/03/14 07:52:39;;;;;;;29.13;12.65;;;9.00;99.90;;;;;;4978404;28;20408;-77
2022/03/14 07:55:06;;;;;;;23.58;11.15;;;9.00;99.90;;;;;;4996003;28;20047;-77
2022/03/14 07:57:36;;;;;;;31.83;15.77;;;9.00;99.90;;;;;;4978479;28;20054;-77
2022/03/14 08:00:08;;;;;;;23.02;11.23;;;9.00;99.90;;;;;;4995565;28;20486;-77
2022/03/14 08:02:33;;;;;;;28.15;12.95;;;9.10;99.90;;;;;;4995657;28;20387;-77
2022/03/14 08:04:59;;;;;;;25.08;11.48;;;9.10;99.90;;;;;;4978231;28;20525;-77
2022/03/14 08:07:26;;;;;;;22.92;11.95;;;9.10;99.90;;;;;;4995705;28;20038;-77
2022/03/14 08:09:53;;;;;;;24.45;11.82;;;9.10;99.90;;;;;;4978314;28;20053;-77
2022/03/14 08:12:20;;;;;;;27.48;12.27;;;9.20;99.90;;;;;;4978277;28;20054;-77
2022/03/14 08:14:47;;;;;;;22.40;11.35;;;9.20;99.90;;;;;;4995488;28;20057;-78
2022/03/14 08:17:13;;;;;;;22.17;11.25;;;9.20;99.90;;;;;;4995559;28;20104;-78
2022/03/14 08:19:39;;;;;;;23.02;11.38;;;9.20;99.90;;;;;;4978147;28;20058;-77
2022/03/14 08:22:05;;;;;;;26.40;11.25;;;9.20;99.90;;;;;;4995535;28;20478;-77
2022/03/14 08:24:32;;;;;;;24.70;11.95;;;9.20;99.90;;;;;;4995227;28;20077;-77
2022/03/14 08:26:57;;;;;;;24.55;11.98;;;9.20;99.90;;;;;;4977953;28;20046;-77
2022/03/14 08:29:23;;;;;;;25.85;12.15;;;9.30;99.90;;;;;;5004735;28;20049;-76
2022/03/14 08:31:49;;;;;;;23.05;11.73;;;9.30;99.90;;;;;;5014647;28;20045;-77
2022/03/14 08:34:14;;;;;;;27.60;13.35;;;9.30;99.90;;;;;;4997276;28;20053;-77
2022/03/14 08:36:40;;;;;;;24.75;12.82;;;9.30;99.90;;;;;;5014193;28;20400;-76
2022/03/14 08:39:07;;;;;;;26.05;12.02;;;9.30;99.90;;;;;;4997100;28;20046;-77
2022/03/14 08:41:36;;;;;;;27.05;12.68;;;9.30;99.90;;;;;;5013788;28;20482;-77
2022/03/14 08:44:09;;;;;;;28.98;13.85;;;9.30;99.90;;;;;;5014494;28;20042;-77
2022/03/14 08:46:35;;;;;;;30.35;14.20;;;9.30;99.90;;;;;;4996323;28;20493;-76
2022/03/14 08:49:01;;;;;;;29.75;13.02;;;9.30;99.90;;;;;;4996913;28;20137;-77
2022/03/14 08:51:27;;;;;;;27.00;12.30;;;9.30;99.90;;;;;;4996624;28;20096;-78
2022/03/14 08:53:53;;;;;;;28.92;13.10;;;9.30;99.90;;;;;;4996458;28;20044;-77
2022/03/14 08:56:19;;;;;;;30.15;13.88;;;9.30;99.90;;;;;;4996387;28;20096;-78
2022/03/14 08:58:45;;;;;;;29.20;12.93;;;9.40;99.90;;;;;;5013609;28;20081;-77
2022/03/14 09:01:11;;;;;;;32.28;13.00;;;9.30;99.90;;;;;;4996083;28;20077;-78
2022/03/14 09:03:37;;;;;;;29.77;14.55;;;9.40;99.90;;;;;;4996406;28;20042;-77
2022/03/14 09:06:03;;;;;;;34.20;14.98;;;9.40;99.90;;;;;;4995937;28;20568;-77
2022/03/14 09:08:31;;;;;;;31.42;14.32;;;9.40;99.90;;;;;;5014088;28;20045;-77
2022/03/14 09:10:58;;;;;;;33.10;15.23;;;9.50;99.90;;;;;;5014183;28;20089;-77
2022/03/14 09:13:24;;;;;;;27.25;13.52;;;9.50;99.90;;;;;;4996152;28;20045;-77
2022/03/14 09:15:50;;;;;;;32.88;15.73;;;9.50;99.90;;;;;;4996326;28;20056;-77
2022/03/14 09:18:16;;;;;;;31.83;15.20;;;9.50;99.90;;;;;;4996582;28;20072;-77
2022/03/14 09:20:44;;;;;;;35.88;15.50;;;9.50;99.90;;;;;;5013546;28;20466;-77
2022/03/14 09:23:10;;;;;;;33.30;16.05;;;9.50;99.90;;;;;;5013548;28;20459;-77
2022/03/14 09:25:36;;;;;;;32.92;15.35;;;9.50;99.90;;;;;;5013191;28;20453;-77
2022/03/14 09:28:02;;;;;;;28.98;14.07;;;9.50;99.90;;;;;;4995890;28;20579;-77
2022/03/14 09:30:28;;;;;;;26.63;14.27;;;9.50;99.90;;;;;;5013861;28;20054;-78
2022/03/14 09:32:54;;;;;;;37.58;17.65;;;9.50;99.90;;;;;;4995646;28;20398;-77
2022/03/14 09:35:22;;;;;;;52.63;20.80;;;9.50;99.90;;;;;;4995973;28;20042;-78
2022/03/14 09:37:49;;;;;;;53.20;23.73;;;9.50;99.90;;;;;;4995825;28;20493;-78
2022/03/14 09:40:20;;;;;;;52.33;23.27;;;9.50;99.90;;;;;;5013277;28;20084;-78
2022/03/14 09:42:51;;;;;;;49.00;21.45;;;9.50;99.90;;;;;;5009575;28;20041;-78
2022/03/14 09:45:19;;;;;;;46.63;21.52;;;9.50;99.90;;;;;;5013170;28;20073;-78
2022/03/14 09:47:47;;;;;;;47.53;21.40;;;9.50;99.90;;;;;;4996159;28;20096;-78
2022/03/14 09:50:19;;;;;;;48.60;21.27;;;9.40;99.90;;;;;;5012761;28;20404;-79
2022/03/14 09:52:46;;;;;;;51.90;22.05;;;9.40;99.90;;;;;;5013632;28;20053;-78
2022/03/14 09:55:12;;;;;;;54.47;22.85;;;9.40;99.90;;;;;;5013389;28;20128;-78
2022/03/14 09:57:39;;;;;;;49.03;21.20;;;9.40;99.90;;;;;;4995635;28;20046;-78
2022/03/14 10:00:07;;;;;;;51.38;21.17;;;9.40;99.90;;;;;;4995699;28;20054;-77
2022/03/14 10:02:36;;;;;;;47.20;21.33;;;9.40;99.90;;;;;;5012814;28;20054;-77
2022/03/14 10:05:06;;;;;;;43.92;18.75;;;9.40;99.90;;;;;;4996401;28;20049;-77
2022/03/14 10:07:34;;;;;;;43.60;17.15;;;9.30;99.90;;;;;;4999366;28;20057;-77
2022/03/14 10:10:00;;;;;;;43.58;17.38;;;9.40;99.90;;;;;;5015992;28;20490;-77
2022/03/14 10:12:26;;;;;;;36.53;15.70;;;9.40;99.90;;;;;;5017288;28;20466;-77
2022/03/14 10:14:52;;;;;;;35.88;15.98;;;9.40;99.90;;;;;;4999434;28;20501;-78
2022/03/14 10:17:18;;;;;;;35.63;14.10;;;9.40;99.90;;;;;;5022414;28;20084;-79
2022/03/14 10:19:56;;;;;;;31.60;12.43;;;9.40;99.90;;;;;;5019386;28;20062;-79
2022/03/14 10:22:22;;;;;;;28.23;10.77;;;9.40;99.90;;;;;;5032549;28;20046;-79
2022/03/14 10:24:54;;;;;;;24.95;10.20;;;9.30;99.90;;;;;;5017486;28;20077;-79
2022/03/14 10:27:21;;;;;;;19.50;8.10;;;9.30;99.90;;;;;;5019236;28;20053;-80
2022/03/14 10:29:49;;;;;;;22.70;8.40;;;9.30;99.90;;;;;;4999081;28;20085;-79
2022/03/14 10:32:32;;;;;;;20.52;7.75;;;9.30;99.90;;;;;;5016616;28;20042;-79
2022/03/14 10:35:07;;;;;;;19.40;8.32;;;9.30;99.90;;;;;;5018277;28;20092;-78
2022/03/14 10:37:35;;;;;;;21.15;9.10;;;9.30;99.90;;;;;;5016692;28;20041;-80
2022/03/14 10:40:08;;;;;;;21.33;9.00;;;9.30;99.90;;;;;;5016596;28;20072;-81
2022/03/14 10:42:52;;;;;;;20.58;8.38;;;9.30;99.90;;;;;;5016121;28;20104;-80
2022/03/14 10:45:18;;;;;;;19.55;8.45;;;9.30;99.90;;;;;;5016250;28;20042;-79
2022/03/14 10:47:52;;;;;;;16.92;7.55;;;9.30;99.90;;;;;;4999300;28;20069;-80
2022/03/14 10:50:33;;;;;;;20.95;7.90;;;9.30;99.90;;;;;;5016455;28;20046;-82
2022/03/14 10:53:09;;;;;;;19.60;7.53;;;9.30;99.90;;;;;;5010920;28;20038;-78
2022/03/14 10:55:39;;;;;;;17.35;7.75;;;9.30;99.90;;;;;;5016406;28;20049;-80
2022/03/14 10:58:18;;;;;;;17.58;7.57;;;9.40;99.90;;;;;;5015991;28;20038;-79
2022/03/14 11:00:55;;;;;;;16.83;6.32;;;9.40;99.90;;;;;;5016235;28;20116;-79
2022/03/14 11:03:22;;;;;;;15.40;6.35;;;9.50;99.90;;;;;;5016284;28;20562;-78
2022/03/14 11:05:48;;;;;;;17.13;6.00;;;9.50;99.90;;;;;;5025981;28;20126;-78
2022/03/14 11:08:29;;;;;;;14.57;6.35;;;9.60;99.90;;;;;;5029187;28;20045;-79
2022/03/14 11:10:59;;;;;;;14.88;6.50;;;9.60;99.90;;;;;;5016481;28;20038;-79
2022/03/14 11:13:26;;;;;;;12.55;6.25;;;9.60;99.90;;;;;;5016882;28;20037;-79
2022/03/14 11:15:52;;;;;;;19.42;6.90;;;9.70;99.90;;;;;;5033592;28;20041;-81
2022/03/14 11:18:19;;;;;;;14.32;6.55;;;9.70;99.90;;;;;;5018893;28;20481;-80
2022/03/14 11:20:46;;;;;;;13.57;5.50;;;9.70;99.90;;;;;;5016541;28;20077;-80
2022/03/14 11:23:14;;;;;;;12.25;5.32;;;9.70;99.90;;;;;;5015976;28;20042;-80
2022/03/14 11:25:44;;;;;;;14.90;5.53;;;9.80;99.90;;;;;;5009888;28;20053;-80
2022/03/14 11:28:15;;;;;;;14.30;5.90;;;9.80;99.90;;;;;;5015564;28;20053;-80
2022/03/14 11:30:46;;;;;;;11.77;5.03;;;9.80;99.90;;;;;;4999109;28;20129;-80
2022/03/14 11:33:13;;;;;;;11.32;4.72;;;9.80;99.90;;;;;;5016515;28;20511;-80
2022/03/14 11:35:39;;;;;;;11.57;4.82;;;9.90;99.90;;;;;;5015218;28;20420;-79
2022/03/14 11:38:08;;;;;;;12.20;4.53;;;9.80;99.90;;;;;;5011531;28;20041;-81
2022/03/14 11:40:35;;;;;;;11.95;5.13;;;9.80;99.90;;;;;;4998518;28;20048;-82
2022/03/14 11:43:02;;;;;;;9.38;4.43;;;9.80;99.90;;;;;;4998454;28;20536;-80
2022/03/14 11:45:29;;;;;;;12.85;5.93;;;9.80;99.90;;;;;;4998230;28;20046;-80
2022/03/14 11:47:56;;;;;;;14.40;4.97;;;9.90;99.90;;;;;;5015444;28;20056;-82
2022/03/14 11:50:22;;;;;;;11.55;4.70;;;9.80;99.90;;;;;;5005946;28;20057;-81
2022/03/14 11:52:53;;;;;;;15.88;4.70;;;9.90;99.90;;;;;;5017792;28;20049;-82
2022/03/14 11:55:24;;;;;;;17.00;5.60;;;9.90;99.90;;;;;;5035342;28;20049;-82
2022/03/14 11:57:50;;;;;;;12.07;5.30;;;9.80;99.90;;;;;;5035367;28;20045;-80
2022/03/14 12:00:25;;;;;;;12.85;5.45;;;9.90;99.90;;;;;;5017774;28;20049;-82
2022/03/14 12:02:56;;;;;;;16.35;5.55;;;9.90;99.90;;;;;;5017508;28;20081;-82
2022/03/14 12:05:42;;;;;;;17.23;6.63;;;10.00;99.90;;;;;;5014780;28;20092;-82
2022/03/14 12:08:15;;;;;;;12.82;6.40;;;10.00;99.90;;;;;;4986827;28;20093;-82
2022/03/14 12:10:41;;;;;;;14.68;7.00;;;10.00;99.90;;;;;;4994886;28;20449;-81
2022/03/14 12:13:06;;;;;;;17.33;7.47;;;10.00;99.90;;;;;;4976795;28;20552;-83
2022/03/14 12:15:48;;;;;;;13.98;7.38;;;10.10;99.90;;;;;;4995531;28;20046;-81
2022/03/14 12:18:23;;;;;;;19.23;7.75;;;10.00;99.90;;;;;;4995317;28;20038;-78
2022/03/14 12:20:53;;;;;;;16.30;8.07;;;10.00;99.90;;;;;;4995125;28;20140;-80
2022/03/14 12:23:24;;;;;;;14.10;8.02;;;10.00;99.90;;;;;;4978155;28;20062;-77
2022/03/14 12:25:50;;;;;;;14.05;9.63;;;10.00;99.90;;;;;;5032995;28;20099;-89
2022/03/14 12:28:36;;;;;;;15.57;8.68;;;10.10;99.90;;;;;;5016167;28;20557;-88
2022/03/14 12:31:11;;;;;;;19.02;8.00;;;10.10;99.90;;;;;;5016680;28;20053;-86
2022/03/14 12:33:43;;;;;;;23.48;9.82;;;10.10;99.90;;;;;;5009237;28;20050;-89
2022/03/14 12:36:22;;;;;;;16.33;9.57;;;10.20;99.90;;;;;;4997367;28;20049;-85
2022/03/14 12:39:06;;;;;;;17.80;10.00;;;10.30;99.90;;;;;;4997450;28;20038;-90